sensor_id;sensor_type;location;lat;lon;timestamp;P1;durP1;ratioP1;P2;durP2;ratioP2
47523;SDS011;33253;42.144;25.884;2022-08-24T00:01:06;14.32;;;6.43;;
47523;SDS011;33253;42.144;25.884;2022-08-24T00:03:35;10.80;;;6.00;;
47523;SDS011;33253;42.144;25.884;2022-08-24T00:06:02;11.77;;;6.03;;
47523;SDS011;33253;42.144;25.884;2022-08-24T00:08:29;8.27;;;6.13;;
47523;SDS011;33253;42.144;25.884;2022-08-24T00:10:55;8.25;;;5.55;;
47523;SDS011;33253;42.144;25.884;2022-08-24T00:13:21;8.20;;;6.30;;
47523;SDS011;33253;42.144;25.884;2022-08-24T00:15:46;7.72;;;5.95;;
47523;SDS011;33253;42.144;25.884;2022-08-24T00:18:12;8.18;;;5.82;;
47523;SDS011;33253;42.144;25.884;2022-08-24T00:20:38;8.48;;;5.38;;
47523;SDS011;33253;42.144;25.884;2022-08-24T00:23:05;8.88;;;6.32;;
47523;SDS011;33253;42.144;25.884;2022-08-24T00:25:31;7.70;;;5.60;;
47523;SDS011;33253;42.144;25.884;2022-08-24T00:27:56;9.50;;;6.57;;
47523;SDS011;33253;42.144;25.884;2022-08-24T00:30:22;8.27;;;5.50;;
47523;SDS011;33253;42.144;25.884;2022-08-24T00:32:48;14.25;;;6.47;;
47523;SDS011;33253;42.144;25.884;2022-08-24T00:35:14;10.32;;;6.40;;
47523;SDS011;33253;42.144;25.884;2022-08-24T00:37:45;6.85;;;5.47;;
47523;SDS011;33253;42.144;25.884;2022-08-24T00:40:17;10.32;;;5.75;;
47523;SDS011;33253;42.144;25.884;2022-08-24T00:42:51;9.50;;;5.65;;
47523;SDS011;33253;42.144;25.884;2022-08-24T00:45:17;9.77;;;5.43;;
47523;SDS011;33253;42.144;25.884;2022-08-24T00:47:48;10.32;;;5.75;;
47523;SDS011;33253;42.144;25.884;2022-08-24T00:50:24;8.43;;;5.22;;
47523;SDS011;33253;42.144;25.884;2022-08-24T00:53:15;9.50;;;5.63;;
47523;SDS011;33253;42.144;25.884;2022-08-24T00:55:58;6.50;;;5.18;;
47523;SDS011;33253;42.144;25.884;2022-08-24T00:58:29;8.80;;;6.00;;
47523;SDS011;33253;42.144;25.884;2022-08-24T01:01:00;8.23;;;5.97;;
47523;SDS011;33253;42.144;25.884;2022-08-24T01:03:27;8.23;;;6.68;;
47523;SDS011;33253;42.144;25.884;2022-08-24T01:05:56;8.38;;;6.90;;
47523;SDS011;33253;42.144;25.884;2022-08-24T01:08:22;9.95;;;7.15;;
47523;SDS011;33253;42.144;25.884;2022-08-24T01:10:50;9.57;;;7.10;;
47523;SDS011;33253;42.144;25.884;2022-08-24T01:13:21;9.75;;;7.32;;
47523;SDS011;33253;42.144;25.884;2022-08-24T01:15:49;14.00;;;7.03;;
47523;SDS011;33253;42.144;25.884;2022-08-24T01:18:20;9.52;;;7.72;;
47523;SDS011;33253;42.144;25.884;2022-08-24T01:21:08;8.50;;;7.00;;
47523;SDS011;33253;42.144;25.884;2022-08-24T01:23:41;11.68;;;7.47;;
47523;SDS011;33253;42.144;25.884;2022-08-24T01:26:16;11.15;;;7.32;;
47523;SDS011;33253;42.144;25.884;2022-08-24T01:28:56;10.80;;;7.28;;
47523;SDS011;33253;42.144;25.884;2022-08-24T01:31:26;10.43;;;7.32;;
47523;SDS011;33253;42.144;25.884;2022-08-24T01:33:53;9.65;;;7.15;;
47523;SDS011;33253;42.144;25.884;2022-08-24T01:39:14;12.73;;;7.32;;
47523;SDS011;33253;42.144;25.884;2022-08-24T01:41:44;11.23;;;7.32;;
47523;SDS011;33253;42.144;25.884;2022-08-24T01:44:11;10.48;;;7.40;;
47523;SDS011;33253;42.144;25.884;2022-08-24T01:46:41;10.57;;;7.47;;
47523;SDS011;33253;42.144;25.884;2022-08-24T01:49:08;10.23;;;7.20;;
47523;SDS011;33253;42.144;25.884;2022-08-24T01:51:34;9.23;;;7.47;;
47523;SDS011;33253;42.144;25.884;2022-08-24T01:54:00;9.65;;;6.75;;
47523;SDS011;33253;42.144;25.884;2022-08-24T01:56:28;11.20;;;6.78;;
47523;SDS011;33253;42.144;25.884;2022-08-24T01:58:55;10.43;;;6.90;;
47523;SDS011;33253;42.144;25.884;2022-08-24T02:01:21;11.07;;;7.07;;
47523;SDS011;33253;42.144;25.884;2022-08-24T02:03:48;10.27;;;6.82;;
47523;SDS011;33253;42.144;25.884;2022-08-24T02:06:14;12.52;;;7.28;;
47523;SDS011;33253;42.144;25.884;2022-08-24T02:08:42;10.27;;;6.95;;
47523;SDS011;33253;42.144;25.884;2022-08-24T02:11:08;9.85;;;6.88;;
47523;SDS011;33253;42.144;25.884;2022-08-24T02:13:34;8.88;;;7.22;;
47523;SDS011;33253;42.144;25.884;2022-08-24T02:16:01;11.18;;;7.20;;
47523;SDS011;33253;42.144;25.884;2022-08-24T02:18:27;10.55;;;6.53;;
47523;SDS011;33253;42.144;25.884;2022-08-24T02:20:53;12.70;;;6.88;;
47523;SDS011;33253;42.144;25.884;2022-08-24T02:23:19;8.55;;;6.70;;
47523;SDS011;33253;42.144;25.884;2022-08-24T02:25:45;11.52;;;7.07;;
47523;SDS011;33253;42.144;25.884;2022-08-24T02:28:11;9.32;;;7.07;;
47523;SDS011;33253;42.144;25.884;2022-08-24T02:30:38;8.10;;;5.60;;
47523;SDS011;33253;42.144;25.884;2022-08-24T02:33:04;9.05;;;5.78;;
47523;SDS011;33253;42.144;25.884;2022-08-24T02:35:30;9.43;;;5.88;;
47523;SDS011;33253;42.144;25.884;2022-08-24T02:37:55;8.20;;;6.13;;
47523;SDS011;33253;42.144;25.884;2022-08-24T02:40:21;10.48;;;6.20;;
47523;SDS011;33253;42.144;25.884;2022-08-24T02:42:48;9.75;;;6.13;;
47523;SDS011;33253;42.144;25.884;2022-08-24T02:45:13;9.88;;;6.40;;
47523;SDS011;33253;42.144;25.884;2022-08-24T02:47:39;10.95;;;6.40;;
47523;SDS011;33253;42.144;25.884;2022-08-24T02:53:27;7.85;;;6.22;;
47523;SDS011;33253;42.144;25.884;2022-08-24T02:55:53;9.88;;;5.97;;
47523;SDS011;33253;42.144;25.884;2022-08-24T02:58:18;9.77;;;6.03;;
47523;SDS011;33253;42.144;25.884;2022-08-24T03:00:45;11.45;;;6.90;;
47523;SDS011;33253;42.144;25.884;2022-08-24T03:03:11;9.32;;;6.43;;
47523;SDS011;33253;42.144;25.884;2022-08-24T03:05:37;12.43;;;6.85;;
47523;SDS011;33253;42.144;25.884;2022-08-24T03:08:04;10.30;;;6.25;;
47523;SDS011;33253;42.144;25.884;2022-08-24T03:10:30;12.23;;;6.50;;
47523;SDS011;33253;42.144;25.884;2022-08-24T03:12:56;9.45;;;6.32;;
47523;SDS011;33253;42.144;25.884;2022-08-24T03:15:23;11.50;;;6.38;;
47523;SDS011;33253;42.144;25.884;2022-08-24T03:17:48;9.02;;;6.40;;
47523;SDS011;33253;42.144;25.884;2022-08-24T03:20:15;9.77;;;6.60;;
47523;SDS011;33253;42.144;25.884;2022-08-24T03:22:44;7.80;;;6.05;;
47523;SDS011;33253;42.144;25.884;2022-08-24T03:25:11;10.63;;;6.30;;
47523;SDS011;33253;42.144;25.884;2022-08-24T03:27:37;9.80;;;6.13;;
47523;SDS011;33253;42.144;25.884;2022-08-24T03:30:03;10.10;;;5.97;;
47523;SDS011;33253;42.144;25.884;2022-08-24T03:32:31;8.43;;;6.30;;
47523;SDS011;33253;42.144;25.884;2022-08-24T03:34:56;9.35;;;6.32;;
47523;SDS011;33253;42.144;25.884;2022-08-24T03:37:22;6.90;;;5.60;;
47523;SDS011;33253;42.144;25.884;2022-08-24T03:39:48;10.15;;;6.00;;
47523;SDS011;33253;42.144;25.884;2022-08-24T03:42:15;9.57;;;6.63;;
47523;SDS011;33253;42.144;25.884;2022-08-24T03:44:40;10.77;;;6.90;;
47523;SDS011;33253;42.144;25.884;2022-08-24T03:47:06;11.20;;;6.88;;
47523;SDS011;33253;42.144;25.884;2022-08-24T03:49:34;9.15;;;6.63;;
47523;SDS011;33253;42.144;25.884;2022-08-24T03:52:01;14.93;;;6.63;;
47523;SDS011;33253;42.144;25.884;2022-08-24T03:54:27;8.60;;;6.03;;
47523;SDS011;33253;42.144;25.884;2022-08-24T03:56:52;10.85;;;6.43;;
47523;SDS011;33253;42.144;25.884;2022-08-24T03:59:18;15.75;;;6.97;;
47523;SDS011;33253;42.144;25.884;2022-08-24T04:01:43;13.65;;;6.70;;
47523;SDS011;33253;42.144;25.884;2022-08-24T04:04:09;10.70;;;6.57;;
47523;SDS011;33253;42.144;25.884;2022-08-24T04:06:35;9.93;;;6.78;;
47523;SDS011;33253;42.144;25.884;2022-08-24T04:09:01;11.15;;;6.65;;
47523;SDS011;33253;42.144;25.884;2022-08-24T04:11:27;11.52;;;6.95;;
47523;SDS011;33253;42.144;25.884;2022-08-24T04:13:54;15.63;;;7.25;;
47523;SDS011;33253;42.144;25.884;2022-08-24T04:16:21;12.13;;;7.03;;
47523;SDS011;33253;42.144;25.884;2022-08-24T04:18:47;14.13;;;9.68;;
47523;SDS011;33253;42.144;25.884;2022-08-24T04:21:21;10.38;;;8.45;;
47523;SDS011;33253;42.144;25.884;2022-08-24T04:23:49;13.73;;;8.05;;
47523;SDS011;33253;42.144;25.884;2022-08-24T04:28:45;10.77;;;6.90;;
47523;SDS011;33253;42.144;25.884;2022-08-24T04:31:11;11.23;;;8.20;;
47523;SDS011;33253;42.144;25.884;2022-08-24T04:33:37;14.65;;;9.10;;
47523;SDS011;33253;42.144;25.884;2022-08-24T04:36:06;15.52;;;8.05;;
47523;SDS011;33253;42.144;25.884;2022-08-24T04:38:34;16.75;;;7.45;;
47523;SDS011;33253;42.144;25.884;2022-08-24T04:41:02;12.43;;;6.72;;
47523;SDS011;33253;42.144;25.884;2022-08-24T04:43:29;9.27;;;6.22;;
47523;SDS011;33253;42.144;25.884;2022-08-24T04:45:55;15.60;;;6.90;;
47523;SDS011;33253;42.144;25.884;2022-08-24T04:48:20;11.50;;;6.40;;
47523;SDS011;33253;42.144;25.884;2022-08-24T04:50:46;9.63;;;6.82;;
47523;SDS011;33253;42.144;25.884;2022-08-24T04:53:12;10.20;;;6.88;;
47523;SDS011;33253;42.144;25.884;2022-08-24T04:55:45;9.57;;;6.75;;
47523;SDS011;33253;42.144;25.884;2022-08-24T04:58:13;11.15;;;7.10;;
47523;SDS011;33253;42.144;25.884;2022-08-24T05:00:40;11.85;;;7.03;;
47523;SDS011;33253;42.144;25.884;2022-08-24T05:03:06;10.50;;;6.85;;
47523;SDS011;33253;42.144;25.884;2022-08-24T05:05:32;10.60;;;7.20;;
47523;SDS011;33253;42.144;25.884;2022-08-24T05:07:58;9.20;;;7.28;;
47523;SDS011;33253;42.144;25.884;2022-08-24T05:10:24;11.38;;;7.80;;
47523;SDS011;33253;42.144;25.884;2022-08-24T05:12:50;11.63;;;7.30;;
47523;SDS011;33253;42.144;25.884;2022-08-24T05:15:15;13.77;;;7.53;;
47523;SDS011;33253;42.144;25.884;2022-08-24T05:17:41;13.60;;;8.45;;
47523;SDS011;33253;42.144;25.884;2022-08-24T05:20:08;12.13;;;8.35;;
47523;SDS011;33253;42.144;25.884;2022-08-24T05:22:35;12.95;;;8.15;;
47523;SDS011;33253;42.144;25.884;2022-08-24T05:25:04;10.27;;;7.18;;
47523;SDS011;33253;42.144;25.884;2022-08-24T05:27:31;12.82;;;7.97;;
47523;SDS011;33253;42.144;25.884;2022-08-24T05:29:58;12.02;;;8.15;;
47523;SDS011;33253;42.144;25.884;2022-08-24T05:32:24;16.23;;;8.82;;
47523;SDS011;33253;42.144;25.884;2022-08-24T05:34:49;11.20;;;7.60;;
47523;SDS011;33253;42.144;25.884;2022-08-24T05:37:15;10.45;;;8.65;;
47523;SDS011;33253;42.144;25.884;2022-08-24T05:39:40;9.95;;;8.45;;
47523;SDS011;33253;42.144;25.884;2022-08-24T05:42:06;10.48;;;8.00;;
47523;SDS011;33253;42.144;25.884;2022-08-24T05:44:31;10.35;;;8.32;;
47523;SDS011;33253;42.144;25.884;2022-08-24T05:46:57;10.05;;;8.50;;
47523;SDS011;33253;42.144;25.884;2022-08-24T05:49:25;11.43;;;8.40;;
47523;SDS011;33253;42.144;25.884;2022-08-24T05:51:51;12.63;;;8.30;;
47523;SDS011;33253;42.144;25.884;2022-08-24T05:54:17;10.63;;;8.18;;
47523;SDS011;33253;42.144;25.884;2022-08-24T05:56:43;12.88;;;8.93;;
47523;SDS011;33253;42.144;25.884;2022-08-24T05:59:09;11.77;;;7.35;;
47523;SDS011;33253;42.144;25.884;2022-08-24T06:01:40;11.77;;;7.95;;
47523;SDS011;33253;42.144;25.884;2022-08-24T06:04:05;13.05;;;8.32;;
47523;SDS011;33253;42.144;25.884;2022-08-24T06:06:31;12.35;;;7.75;;
47523;SDS011;33253;42.144;25.884;2022-08-24T06:08:59;10.77;;;7.85;;
47523;SDS011;33253;42.144;25.884;2022-08-24T06:11:29;12.50;;;8.07;;
47523;SDS011;33253;42.144;25.884;2022-08-24T06:13:56;9.65;;;7.75;;
47523;SDS011;33253;42.144;25.884;2022-08-24T06:16:24;10.60;;;7.72;;
47523;SDS011;33253;42.144;25.884;2022-08-24T06:18:51;10.38;;;8.18;;
47523;SDS011;33253;42.144;25.884;2022-08-24T06:21:19;13.98;;;7.47;;
47523;SDS011;33253;42.144;25.884;2022-08-24T06:23:47;15.15;;;8.18;;
47523;SDS011;33253;42.144;25.884;2022-08-24T06:26:15;10.88;;;7.38;;
47523;SDS011;33253;42.144;25.884;2022-08-24T06:28:59;8.80;;;6.93;;
47523;SDS011;33253;42.144;25.884;2022-08-24T06:31:24;12.13;;;7.90;;
47523;SDS011;33253;42.144;25.884;2022-08-24T06:33:51;10.90;;;7.30;;
47523;SDS011;33253;42.144;25.884;2022-08-24T06:36:17;11.07;;;7.60;;
47523;SDS011;33253;42.144;25.884;2022-08-24T06:38:43;10.35;;;7.10;;
47523;SDS011;33253;42.144;25.884;2022-08-24T06:41:08;9.20;;;6.15;;
47523;SDS011;33253;42.144;25.884;2022-08-24T06:43:36;9.23;;;6.68;;
47523;SDS011;33253;42.144;25.884;2022-08-24T06:46:03;13.03;;;7.90;;
47523;SDS011;33253;42.144;25.884;2022-08-24T06:48:30;10.73;;;7.50;;
47523;SDS011;33253;42.144;25.884;2022-08-24T06:50:56;11.55;;;7.07;;
47523;SDS011;33253;42.144;25.884;2022-08-24T06:53:23;11.55;;;7.70;;
47523;SDS011;33253;42.144;25.884;2022-08-24T06:58:15;7.95;;;6.35;;
47523;SDS011;33253;42.144;25.884;2022-08-24T07:00:42;8.48;;;6.25;;
47523;SDS011;33253;42.144;25.884;2022-08-24T07:03:07;8.82;;;6.13;;
47523;SDS011;33253;42.144;25.884;2022-08-24T07:05:33;15.43;;;8.88;;
47523;SDS011;33253;42.144;25.884;2022-08-24T07:07:59;15.30;;;7.18;;
47523;SDS011;33253;42.144;25.884;2022-08-24T07:10:25;13.88;;;6.88;;
47523;SDS011;33253;42.144;25.884;2022-08-24T07:12:52;12.95;;;7.28;;
47523;SDS011;33253;42.144;25.884;2022-08-24T07:15:17;11.02;;;6.55;;
47523;SDS011;33253;42.144;25.884;2022-08-24T07:17:43;9.25;;;6.03;;
47523;SDS011;33253;42.144;25.884;2022-08-24T07:20:10;9.45;;;6.43;;
47523;SDS011;33253;42.144;25.884;2022-08-24T07:22:36;13.88;;;6.38;;
47523;SDS011;33253;42.144;25.884;2022-08-24T07:25:03;13.40;;;6.03;;
47523;SDS011;33253;42.144;25.884;2022-08-24T07:27:30;11.32;;;6.30;;
47523;SDS011;33253;42.144;25.884;2022-08-24T07:29:56;13.30;;;6.22;;
47523;SDS011;33253;42.144;25.884;2022-08-24T07:32:22;12.23;;;6.60;;
47523;SDS011;33253;42.144;25.884;2022-08-24T07:34:48;13.25;;;5.82;;
47523;SDS011;33253;42.144;25.884;2022-08-24T07:37:13;10.32;;;5.95;;
47523;SDS011;33253;42.144;25.884;2022-08-24T07:39:39;10.93;;;5.97;;
47523;SDS011;33253;42.144;25.884;2022-08-24T07:42:04;7.90;;;5.70;;
47523;SDS011;33253;42.144;25.884;2022-08-24T07:44:30;10.57;;;5.90;;
47523;SDS011;33253;42.144;25.884;2022-08-24T07:46:56;11.23;;;6.20;;
47523;SDS011;33253;42.144;25.884;2022-08-24T07:49:22;11.50;;;5.97;;
47523;SDS011;33253;42.144;25.884;2022-08-24T07:51:47;13.50;;;6.53;;
47523;SDS011;33253;42.144;25.884;2022-08-24T07:54:17;11.85;;;6.28;;
47523;SDS011;33253;42.144;25.884;2022-08-24T07:56:43;12.52;;;6.50;;
47523;SDS011;33253;42.144;25.884;2022-08-24T07:59:09;10.20;;;5.57;;
47523;SDS011;33253;42.144;25.884;2022-08-24T08:01:35;11.65;;;6.05;;
47523;SDS011;33253;42.144;25.884;2022-08-24T08:04:02;13.50;;;6.05;;
47523;SDS011;33253;42.144;25.884;2022-08-24T08:06:28;9.23;;;5.57;;
47523;SDS011;33253;42.144;25.884;2022-08-24T08:08:53;9.68;;;5.13;;
47523;SDS011;33253;42.144;25.884;2022-08-24T08:11:19;13.98;;;6.00;;
47523;SDS011;33253;42.144;25.884;2022-08-24T08:13:44;9.73;;;5.65;;
47523;SDS011;33253;42.144;25.884;2022-08-24T08:16:10;9.82;;;6.13;;
47523;SDS011;33253;42.144;25.884;2022-08-24T08:18:36;11.10;;;5.93;;
47523;SDS011;33253;42.144;25.884;2022-08-24T08:21:02;11.45;;;5.63;;
47523;SDS011;33253;42.144;25.884;2022-08-24T08:23:28;13.30;;;5.53;;
47523;SDS011;33253;42.144;25.884;2022-08-24T08:26:16;13.13;;;5.57;;
47523;SDS011;33253;42.144;25.884;2022-08-24T08:28:44;12.57;;;5.55;;
47523;SDS011;33253;42.144;25.884;2022-08-24T08:31:10;15.02;;;5.60;;
47523;SDS011;33253;42.144;25.884;2022-08-24T08:33:36;13.73;;;6.38;;
47523;SDS011;33253;42.144;25.884;2022-08-24T08:38:41;15.05;;;5.63;;
47523;SDS011;33253;42.144;25.884;2022-08-24T08:46:39;13.27;;;4.93;;
47523;SDS011;33253;42.144;25.884;2022-08-24T08:55:03;14.55;;;5.38;;
47523;SDS011;33253;42.144;25.884;2022-08-24T09:11:59;14.32;;;6.35;;
47523;SDS011;33253;42.144;25.884;2022-08-24T09:26:02;11.70;;;5.05;;
47523;SDS011;33253;42.144;25.884;2022-08-24T10:02:48;24.88;;;6.10;;
47523;SDS011;33253;42.144;25.884;2022-08-24T10:05:33;22.02;;;5.95;;
47523;SDS011;33253;42.144;25.884;2022-08-24T10:16:39;23.58;;;5.93;;
47523;SDS011;33253;42.144;25.884;2022-08-24T10:21:51;22.30;;;6.60;;
47523;SDS011;33253;42.144;25.884;2022-08-24T10:24:27;24.02;;;5.80;;
47523;SDS011;33253;42.144;25.884;2022-08-24T10:27:28;26.88;;;6.57;;
47523;SDS011;33253;42.144;25.884;2022-08-24T10:33:26;22.65;;;6.50;;
47523;SDS011;33253;42.144;25.884;2022-08-24T10:38:49;23.95;;;5.95;;
47523;SDS011;33253;42.144;25.884;2022-08-24T10:47:28;28.50;;;5.82;;
47523;SDS011;33253;42.144;25.884;2022-08-24T10:55:45;32.00;;;6.72;;
47523;SDS011;33253;42.144;25.884;2022-08-24T10:58:25;26.58;;;5.97;;
47523;SDS011;33253;42.144;25.884;2022-08-24T11:01:15;28.23;;;5.68;;
47523;SDS011;33253;42.144;25.884;2022-08-24T11:06:17;23.37;;;6.17;;
47523;SDS011;33253;42.144;25.884;2022-08-24T11:08:50;34.88;;;6.55;;
47523;SDS011;33253;42.144;25.884;2022-08-24T11:11:24;21.38;;;4.95;;
47523;SDS011;33253;42.144;25.884;2022-08-24T11:14:06;28.03;;;6.03;;
47523;SDS011;33253;42.144;25.884;2022-08-24T11:16:46;30.70;;;5.80;;
47523;SDS011;33253;42.144;25.884;2022-08-24T11:19:31;27.52;;;6.00;;
47523;SDS011;33253;42.144;25.884;2022-08-24T11:22:23;22.83;;;5.72;;
47523;SDS011;33253;42.144;25.884;2022-08-24T11:24:53;29.08;;;6.05;;
47523;SDS011;33253;42.144;25.884;2022-08-24T11:27:38;24.42;;;5.93;;
47523;SDS011;33253;42.144;25.884;2022-08-24T11:30:10;18.75;;;5.55;;
47523;SDS011;33253;42.144;25.884;2022-08-24T11:32:51;27.45;;;5.22;;
47523;SDS011;33253;42.144;25.884;2022-08-24T11:35:24;27.00;;;5.35;;
47523;SDS011;33253;42.144;25.884;2022-08-24T11:38:08;27.63;;;5.82;;
47523;SDS011;33253;42.144;25.884;2022-08-24T11:40:42;24.33;;;5.65;;
47523;SDS011;33253;42.144;25.884;2022-08-24T12:00:19;27.77;;;5.70;;
47523;SDS011;33253;42.144;25.884;2022-08-24T12:11:37;25.42;;;5.80;;
47523;SDS011;33253;42.144;25.884;2022-08-24T12:14:18;30.25;;;6.35;;
47523;SDS011;33253;42.144;25.884;2022-08-24T12:16:51;23.23;;;5.18;;
47523;SDS011;33253;42.144;25.884;2022-08-24T12:19:28;32.17;;;5.55;;
47523;SDS011;33253;42.144;25.884;2022-08-24T12:21:58;23.33;;;5.47;;
47523;SDS011;33253;42.144;25.884;2022-08-24T12:30:18;24.33;;;5.28;;
47523;SDS011;33253;42.144;25.884;2022-08-24T12:32:45;17.92;;;4.88;;
47523;SDS011;33253;42.144;25.884;2022-08-24T12:35:31;27.58;;;6.60;;
47523;SDS011;33253;42.144;25.884;2022-08-24T12:38:05;39.10;;;6.65;;
47523;SDS011;33253;42.144;25.884;2022-08-24T12:40:42;25.02;;;5.72;;
47523;SDS011;33253;42.144;25.884;2022-08-24T12:46:07;23.80;;;5.63;;
47523;SDS011;33253;42.144;25.884;2022-08-24T12:51:31;36.45;;;5.88;;
47523;SDS011;33253;42.144;25.884;2022-08-24T13:00:06;29.58;;;5.85;;
47523;SDS011;33253;42.144;25.884;2022-08-24T13:02:42;31.75;;;5.65;;
47523;SDS011;33253;42.144;25.884;2022-08-24T13:05:17;29.85;;;6.18;;
47523;SDS011;33253;42.144;25.884;2022-08-24T13:07:46;37.00;;;5.63;;
47523;SDS011;33253;42.144;25.884;2022-08-24T13:38:56;28.30;;;5.82;;
47523;SDS011;33253;42.144;25.884;2022-08-24T13:44:24;28.20;;;5.88;;
47523;SDS011;33253;42.144;25.884;2022-08-24T13:52:09;26.08;;;5.22;;
47523;SDS011;33253;42.144;25.884;2022-08-24T13:58:15;29.85;;;5.63;;
47523;SDS011;33253;42.144;25.884;2022-08-24T14:05:51;32.53;;;5.00;;
47523;SDS011;33253;42.144;25.884;2022-08-24T14:22:49;29.02;;;5.55;;
47523;SDS011;33253;42.144;25.884;2022-08-24T14:25:26;34.85;;;5.78;;
47523;SDS011;33253;42.144;25.884;2022-08-24T14:35:43;33.25;;;5.50;;
47523;SDS011;33253;42.144;25.884;2022-08-24T14:44:08;37.33;;;6.15;;
47523;SDS011;33253;42.144;25.884;2022-08-24T14:50:08;23.90;;;4.80;;
47523;SDS011;33253;42.144;25.884;2022-08-24T14:55:39;29.45;;;5.40;;
47523;SDS011;33253;42.144;25.884;2022-08-24T15:04:02;22.33;;;5.47;;
47523;SDS011;33253;42.144;25.884;2022-08-24T15:06:49;29.25;;;5.65;;
47523;SDS011;33253;42.144;25.884;2022-08-24T15:11:48;20.08;;;4.93;;
47523;SDS011;33253;42.144;25.884;2022-08-24T15:14:21;27.50;;;5.47;;
47523;SDS011;33253;42.144;25.884;2022-08-24T15:17:00;26.05;;;5.30;;
47523;SDS011;33253;42.144;25.884;2022-08-24T15:22:01;19.77;;;5.03;;
47523;SDS011;33253;42.144;25.884;2022-08-24T15:24:40;24.20;;;5.75;;
47523;SDS011;33253;42.144;25.884;2022-08-24T15:27:22;32.15;;;5.72;;
47523;SDS011;33253;42.144;25.884;2022-08-24T15:30:21;24.10;;;5.65;;
47523;SDS011;33253;42.144;25.884;2022-08-24T15:32:53;25.15;;;5.97;;
47523;SDS011;33253;42.144;25.884;2022-08-24T15:35:34;20.67;;;5.22;;
47523;SDS011;33253;42.144;25.884;2022-08-24T15:43:32;28.25;;;6.38;;
47523;SDS011;33253;42.144;25.884;2022-08-24T15:46:00;28.17;;;5.30;;
47523;SDS011;33253;42.144;25.884;2022-08-24T15:48:26;18.33;;;5.10;;
47523;SDS011;33253;42.144;25.884;2022-08-24T15:50:54;30.73;;;5.68;;
47523;SDS011;33253;42.144;25.884;2022-08-24T15:56:22;21.00;;;5.43;;
47523;SDS011;33253;42.144;25.884;2022-08-24T15:58:49;22.60;;;5.38;;
47523;SDS011;33253;42.144;25.884;2022-08-24T16:04:05;17.30;;;4.57;;
47523;SDS011;33253;42.144;25.884;2022-08-24T16:12:01;24.13;;;5.43;;
47523;SDS011;33253;42.144;25.884;2022-08-24T16:14:37;20.42;;;5.57;;
47523;SDS011;33253;42.144;25.884;2022-08-24T16:19:58;17.98;;;5.50;;
47523;SDS011;33253;42.144;25.884;2022-08-24T16:22:30;21.95;;;6.20;;
47523;SDS011;33253;42.144;25.884;2022-08-24T16:33:03;22.83;;;5.95;;
47523;SDS011;33253;42.144;25.884;2022-08-24T16:35:29;19.17;;;5.70;;
47523;SDS011;33253;42.144;25.884;2022-08-24T16:37:55;15.07;;;5.13;;
47523;SDS011;33253;42.144;25.884;2022-08-24T16:40:21;23.40;;;5.75;;
47523;SDS011;33253;42.144;25.884;2022-08-24T16:42:47;27.27;;;6.40;;
47523;SDS011;33253;42.144;25.884;2022-08-24T16:45:14;27.45;;;5.82;;
47523;SDS011;33253;42.144;25.884;2022-08-24T16:50:09;22.00;;;5.30;;
47523;SDS011;33253;42.144;25.884;2022-08-24T16:52:35;23.98;;;6.40;;
47523;SDS011;33253;42.144;25.884;2022-08-24T16:55:00;26.15;;;6.07;;
47523;SDS011;33253;42.144;25.884;2022-08-24T16:57:27;21.77;;;5.88;;
47523;SDS011;33253;42.144;25.884;2022-08-24T16:59:55;19.92;;;6.38;;
47523;SDS011;33253;42.144;25.884;2022-08-24T17:02:21;27.48;;;6.47;;
47523;SDS011;33253;42.144;25.884;2022-08-24T17:04:49;20.00;;;5.90;;
47523;SDS011;33253;42.144;25.884;2022-08-24T17:07:20;22.42;;;6.75;;
47523;SDS011;33253;42.144;25.884;2022-08-24T17:09:48;25.98;;;5.82;;
47523;SDS011;33253;42.144;25.884;2022-08-24T17:12:14;17.67;;;5.57;;
47523;SDS011;33253;42.144;25.884;2022-08-24T17:14:40;17.90;;;5.85;;
47523;SDS011;33253;42.144;25.884;2022-08-24T17:17:06;27.83;;;6.07;;
47523;SDS011;33253;42.144;25.884;2022-08-24T17:19:34;27.10;;;6.25;;
47523;SDS011;33253;42.144;25.884;2022-08-24T17:22:00;20.52;;;5.80;;
47523;SDS011;33253;42.144;25.884;2022-08-24T17:24:25;25.02;;;6.47;;
47523;SDS011;33253;42.144;25.884;2022-08-24T17:26:51;20.83;;;5.80;;
47523;SDS011;33253;42.144;25.884;2022-08-24T17:29:18;19.67;;;5.72;;
47523;SDS011;33253;42.144;25.884;2022-08-24T17:31:45;22.67;;;5.63;;
47523;SDS011;33253;42.144;25.884;2022-08-24T17:34:13;20.85;;;5.75;;
47523;SDS011;33253;42.144;25.884;2022-08-24T17:36:40;19.80;;;6.10;;
47523;SDS011;33253;42.144;25.884;2022-08-24T17:39:09;24.30;;;6.00;;
47523;SDS011;33253;42.144;25.884;2022-08-24T17:41:36;23.42;;;6.07;;
47523;SDS011;33253;42.144;25.884;2022-08-24T17:44:02;21.13;;;6.32;;
47523;SDS011;33253;42.144;25.884;2022-08-24T17:46:29;25.60;;;6.95;;
47523;SDS011;33253;42.144;25.884;2022-08-24T17:48:55;19.92;;;5.32;;
47523;SDS011;33253;42.144;25.884;2022-08-24T17:51:21;18.45;;;5.97;;
47523;SDS011;33253;42.144;25.884;2022-08-24T17:53:47;20.63;;;6.15;;
47523;SDS011;33253;42.144;25.884;2022-08-24T17:56:12;25.17;;;5.72;;
47523;SDS011;33253;42.144;25.884;2022-08-24T17:58:40;21.40;;;5.68;;
47523;SDS011;33253;42.144;25.884;2022-08-24T18:01:27;21.83;;;5.90;;
47523;SDS011;33253;42.144;25.884;2022-08-24T18:03:53;20.50;;;5.70;;
47523;SDS011;33253;42.144;25.884;2022-08-24T18:06:19;20.85;;;5.65;;
47523;SDS011;33253;42.144;25.884;2022-08-24T18:08:47;15.75;;;5.22;;
47523;SDS011;33253;42.144;25.884;2022-08-24T18:11:14;15.45;;;5.70;;
47523;SDS011;33253;42.144;25.884;2022-08-24T18:13:39;23.10;;;6.00;;
47523;SDS011;33253;42.144;25.884;2022-08-24T18:16:08;17.20;;;5.68;;
47523;SDS011;33253;42.144;25.884;2022-08-24T18:18:40;17.40;;;5.88;;
47523;SDS011;33253;42.144;25.884;2022-08-24T18:21:06;16.30;;;5.90;;
47523;SDS011;33253;42.144;25.884;2022-08-24T18:23:31;20.83;;;6.38;;
47523;SDS011;33253;42.144;25.884;2022-08-24T18:25:57;19.73;;;6.07;;
47523;SDS011;33253;42.144;25.884;2022-08-24T18:28:23;16.73;;;5.82;;
47523;SDS011;33253;42.144;25.884;2022-08-24T18:30:48;19.40;;;6.32;;
47523;SDS011;33253;42.144;25.884;2022-08-24T18:33:15;14.10;;;5.32;;
47523;SDS011;33253;42.144;25.884;2022-08-24T18:35:41;22.48;;;6.13;;
47523;SDS011;33253;42.144;25.884;2022-08-24T18:38:08;20.77;;;6.40;;
47523;SDS011;33253;42.144;25.884;2022-08-24T18:40:34;21.10;;;6.22;;
47523;SDS011;33253;42.144;25.884;2022-08-24T18:43:00;16.38;;;5.18;;
47523;SDS011;33253;42.144;25.884;2022-08-24T18:45:28;22.92;;;5.88;;
47523;SDS011;33253;42.144;25.884;2022-08-24T18:47:55;24.67;;;6.35;;
47523;SDS011;33253;42.144;25.884;2022-08-24T18:50:22;17.73;;;5.45;;
47523;SDS011;33253;42.144;25.884;2022-08-24T18:52:48;22.00;;;6.07;;
47523;SDS011;33253;42.144;25.884;2022-08-24T18:55:15;23.17;;;6.05;;
47523;SDS011;33253;42.144;25.884;2022-08-24T18:57:40;21.45;;;6.03;;
47523;SDS011;33253;42.144;25.884;2022-08-24T19:00:06;14.73;;;5.10;;
47523;SDS011;33253;42.144;25.884;2022-08-24T19:02:33;22.85;;;6.00;;
47523;SDS011;33253;42.144;25.884;2022-08-24T19:07:40;22.80;;;5.28;;
47523;SDS011;33253;42.144;25.884;2022-08-24T19:10:09;24.65;;;5.63;;
47523;SDS011;33253;42.144;25.884;2022-08-24T19:12:37;15.18;;;5.53;;
47523;SDS011;33253;42.144;25.884;2022-08-24T19:15:05;21.40;;;6.38;;
47523;SDS011;33253;42.144;25.884;2022-08-24T19:17:32;21.40;;;6.75;;